Hilo, HI

8:24 PM HST on April 20, 2015 (GMT -1000)
Hilo International | | Change Station
CLOSE
Current Station
Airport
Location: Hilo,
Elevation: 36 ft
Nearby Weather Stations
Active Advisory: High Surf Advisory

Elev 36 ft 19.72 °N, 155.05 °W | Updated 31 minutes ago

Mostly Cloudy
Mostly Cloudy
69 °F
Feels Like 69 °F
N
5
Wind Variable Wind from West

Today
High -- | Low -- °F
--% Chance of Precip.
Yesterday
High -- | Low -- °F
Precip. -- in
5:58 AM 6:39 PM
Waxing Crescent, 8% visible
Pressure 30.08 in
Visibility 10.0 miles
Clouds Scattered Clouds 1200 ft
Scattered Clouds 2500 ft
Mostly Cloudy 7500 ft
Dew Point 66 °F
Humidity 90%
Rainfall 0.49 in
Snow Depth Not available.
UV 0 out of 12
Pollen Not available.
Air Quality Not available.
Flu Activity Regional
METAR PHTO 210553Z 26004KT 10SM SCT012 SCT025 BKN075 21/19 A3008 RMK AO2 RAB27E50 SLP186 P0021 60024 T02060189 10267 20206 52012

More Conditions Fewer Conditions

Pressure 30.08 in
Visibility 10.0 miles
Clouds Scattered Clouds 1200 ft
Scattered Clouds 2500 ft
Mostly Cloudy 7500 ft
Dew Point 66 °F
Humidity 90%
Rainfall 0.49 in
Snow Depth Not available.
UV 0 out of 12
Pollen Not available.
Air Quality Not available.
Flu Activity Regional
METAR PHTO 210553Z 26004KT 10SM SCT012 SCT025 BKN075 21/19 A3008 RMK AO2 RAB27E50 SLP186 P0021 60024 T02060189 10267 20206 52012

More Conditions Fewer Conditions

10-Day Weather Forecast

Almanac

Astronomy

Apr. 20, 2015 Rise Set
Actual Time
Civil Twilight
Nautical Twilight
Astronomical Twilight
Moon
Length of Visible Light
Length of Day
Tomorrow will be .
, % of the Moon is Illuminated

Today's Extremes

State Highs State Lows

Community

WunderPhotos

Upload Photos

1,815,319 photos uploaded!

WunderBlogs® & News

Nearby

Air Quality

  Air Quality AQ Index Pollutant
Not available.

Snow Depth

Station Depth Elevation

Earthquake Activity

City Distance Mag. Time & Date
Minimum magnitude displayed is 2.5.

Coastal Water Temperatures

Place Temperature

Stations

Nearby Weather Stations

Station Location Temp. Windchill Dew Point Humidity Wind Precip. Elev Updated Type
                   
High Surf Advisory
Statement as of 3:00 PM HST on April 20, 2015

... High surf advisory remains in effect until 6 am HST
Wednesday...

A high surf advisory remains in effect until 6 am HST Wednesday.

* Surf... 6 to 10 feet along east facing shores.

* Timing... through early Wednesday.

* Impacts... moderate... expect strong breaking waves... shore
break... and strong longshore and rip currents making swimming
difficult and dangerous.

Precautionary/preparedness actions...

Beachgoers... swimmers... and surfers should heed all advice given
by ocean safety officials and exercise caution.